createdAt,value
2017-12-26T00:00:42.096Z,947.76
2017-12-26T00:01:42.094Z,947.73
2017-12-26T00:02:42.076Z,947.72
2017-12-26T00:03:42.081Z,947.62
2017-12-26T00:04:42.044Z,947.66
2017-12-26T00:05:42.028Z,947.65
2017-12-26T00:06:42.013Z,947.63
2017-12-26T00:07:41.984Z,947.57
2017-12-26T00:08:41.980Z,947.61
2017-12-26T00:09:41.952Z,947.57
2017-12-26T00:10:41.937Z,947.62
2017-12-26T00:11:41.933Z,947.68
2017-12-26T00:12:41.915Z,947.6
2017-12-26T00:13:41.889Z,947.49
2017-12-26T00:14:41.954Z,947.5
2017-12-26T00:15:41.868Z,947.6
2017-12-26T00:16:41.846Z,947.58
2017-12-26T00:17:41.825Z,947.52
2017-12-26T00:18:41.810Z,947.57
2017-12-26T00:19:41.793Z,947.46
2017-12-26T00:20:41.779Z,947.55
2017-12-26T00:21:41.779Z,947.59
2017-12-26T00:22:41.749Z,947.51
2017-12-26T00:23:41.729Z,947.49
2017-12-26T00:24:41.726Z,947.48
2017-12-26T00:25:41.697Z,947.52
2017-12-26T00:26:41.681Z,947.51
2017-12-26T00:27:41.677Z,947.47
2017-12-26T00:28:41.651Z,947.54
2017-12-26T00:29:41.634Z,947.42
2017-12-26T00:30:41.619Z,947.36
2017-12-26T00:31:41.604Z,947.36
2017-12-26T00:32:41.586Z,947.37
2017-12-26T00:33:41.572Z,947.39
2017-12-26T00:34:41.553Z,947.29
2017-12-26T00:35:41.542Z,947.38
2017-12-26T00:36:41.535Z,947.33
2017-12-26T00:37:41.506Z,947.3
2017-12-26T00:38:41.491Z,947.35
2017-12-26T00:39:41.478Z,947.3
2017-12-26T00:40:41.461Z,947.21
2017-12-26T00:41:41.443Z,947.23
2017-12-26T00:42:41.429Z,947.33
2017-12-26T00:43:41.412Z,947.25
2017-12-26T00:44:41.397Z,947.3
2017-12-26T00:45:41.387Z,947.23
2017-12-26T00:46:41.364Z,947.35
2017-12-26T00:47:41.374Z,947.25
2017-12-26T00:48:41.389Z,947.25
2017-12-26T00:49:41.352Z,947.25
2017-12-26T00:50:41.402Z,947.29
2017-12-26T00:51:41.323Z,947.28
2017-12-26T00:52:41.319Z,947.3
2017-12-26T00:53:41.302Z,947.21
2017-12-26T00:54:41.274Z,947.22
2017-12-26T00:55:41.262Z,947.18
2017-12-26T00:56:41.258Z,947.21
2017-12-26T00:57:41.237Z,947.29
2017-12-26T00:58:41.231Z,947.23
2017-12-26T00:59:41.159Z,947.17
2017-12-26T01:00:41.186Z,947.21
2017-12-26T01:01:41.128Z,947.22
2017-12-26T01:02:41.135Z,947.19
2017-12-26T01:03:41.096Z,947.26
2017-12-26T01:04:41.085Z,947.19
2017-12-26T01:05:41.065Z,947.25
2017-12-26T01:06:41.056Z,947.29
2017-12-26T01:07:41.032Z,947.27
2017-12-26T01:08:41.018Z,947.22
2017-12-26T01:09:41.003Z,947.26
2017-12-26T01:10:40.984Z,947.28
2017-12-26T01:11:40.971Z,947.32
2017-12-26T01:12:40.955Z,947.31
2017-12-26T01:13:40.989Z,947.35
2017-12-26T01:14:40.922Z,947.24
2017-12-26T01:15:40.907Z,947.29
2017-12-26T01:16:40.912Z,947.33
2017-12-26T01:17:40.876Z,947.31
2017-12-26T01:18:40.876Z,947.29
2017-12-26T01:19:40.845Z,947.26
2017-12-26T01:20:40.834Z,947.26
2017-12-26T01:21:40.812Z,947.25
2017-12-26T01:22:40.797Z,947.23
2017-12-26T01:23:40.781Z,947.21
2017-12-26T01:24:40.815Z,947.21
2017-12-26T01:25:40.750Z,947.31
2017-12-26T01:26:40.733Z,947.24
2017-12-26T01:27:40.719Z,947.15
2017-12-26T01:28:40.701Z,947.25
2017-12-26T01:29:40.684Z,947.19
2017-12-26T01:30:40.689Z,947.14
2017-12-26T01:31:40.653Z,947.17
2017-12-26T01:32:40.640Z,947.16
2017-12-26T01:33:40.621Z,947.15
2017-12-26T01:34:40.606Z,947.1
2017-12-26T01:35:40.589Z,947.03
2017-12-26T01:36:40.574Z,946.96
2017-12-26T01:37:40.557Z,947.03
2017-12-26T01:38:40.544Z,947.07
2017-12-26T01:39:40.526Z,947.04
2017-12-26T01:40:40.524Z,947.03
2017-12-26T01:41:40.493Z,946.94
2017-12-26T01:42:40.479Z,947.12
2017-12-26T01:43:40.462Z,947.01
2017-12-26T01:44:40.446Z,947.01
2017-12-26T01:45:40.429Z,947.03
2017-12-26T01:46:40.412Z,946.82
2017-12-26T01:47:40.397Z,946.95
2017-12-26T01:48:40.380Z,946.96
2017-12-26T01:49:40.366Z,946.89
2017-12-26T01:50:40.367Z,946.92
2017-12-26T01:51:40.334Z,946.9
2017-12-26T01:52:40.316Z,947
2017-12-26T01:53:40.300Z,946.84
2017-12-26T01:54:40.286Z,946.8
2017-12-26T01:55:40.269Z,946.95
2017-12-26T01:56:40.253Z,946.82
2017-12-26T01:57:40.236Z,946.89
2017-12-26T01:58:40.221Z,946.85
2017-12-26T01:59:40.205Z,946.9
2017-12-26T02:00:40.190Z,946.84
2017-12-26T02:01:40.172Z,946.83
2017-12-26T02:02:40.157Z,946.88
2017-12-26T02:03:40.147Z,946.87
2017-12-26T02:04:40.126Z,946.77
2017-12-26T02:05:40.108Z,946.65
2017-12-26T02:06:40.094Z,946.73
2017-12-26T02:07:40.077Z,946.71
2017-12-26T02:08:40.062Z,946.63
2017-12-26T02:09:40.045Z,946.7
2017-12-26T02:10:40.031Z,946.59
2017-12-26T02:11:40.014Z,946.61
2017-12-26T02:12:39.998Z,946.55
2017-12-26T02:13:39.980Z,946.58
2017-12-26T02:14:39.999Z,946.64
2017-12-26T02:15:39.950Z,946.53
2017-12-26T02:16:39.943Z,946.52
2017-12-26T02:17:39.920Z,946.57
2017-12-26T02:18:39.902Z,946.51
2017-12-26T02:19:39.889Z,946.46
2017-12-26T02:20:39.873Z,946.47
2017-12-26T02:21:39.857Z,946.39
2017-12-26T02:22:39.840Z,946.46
2017-12-26T02:23:39.822Z,946.39
2017-12-26T02:24:39.807Z,946.5
2017-12-26T02:25:39.791Z,946.43
2017-12-26T02:26:39.775Z,946.58
2017-12-26T02:27:39.759Z,946.49
2017-12-26T02:28:39.744Z,946.47
2017-12-26T02:29:39.728Z,946.47
2017-12-26T02:30:39.712Z,946.45
2017-12-26T02:31:39.696Z,946.49
2017-12-26T02:32:39.684Z,946.41
2017-12-26T02:33:39.666Z,946.48
2017-12-26T02:34:39.649Z,946.44
2017-12-26T02:35:39.634Z,946.47
2017-12-26T02:36:39.622Z,946.51
2017-12-26T02:37:39.618Z,946.51
2017-12-26T02:38:39.585Z,946.41
2017-12-26T02:39:39.572Z,946.35
2017-12-26T02:40:39.556Z,946.42
2017-12-26T02:41:39.540Z,946.35
2017-12-26T02:42:39.523Z,946.42
2017-12-26T02:43:39.508Z,946.38
2017-12-26T02:44:39.492Z,946.43
2017-12-26T02:45:39.475Z,946.41
2017-12-26T02:46:39.467Z,946.29
2017-12-26T02:47:39.445Z,946.4
2017-12-26T02:48:39.427Z,946.22
2017-12-26T02:49:39.427Z,946.37
2017-12-26T02:50:39.397Z,946.27
2017-12-26T02:51:39.383Z,946.29
2017-12-26T02:52:39.366Z,946.34
2017-12-26T02:53:39.350Z,946.37
2017-12-26T02:54:39.334Z,946.25
2017-12-26T02:55:39.334Z,946.29
2017-12-26T02:56:39.302Z,946.2
2017-12-26T02:57:39.286Z,946.27
2017-12-26T02:58:39.281Z,946.28
2017-12-26T02:59:39.256Z,946.29
2017-12-26T03:00:39.246Z,946.24
2017-12-26T03:01:39.223Z,946.22
2017-12-26T03:02:39.208Z,946.16
2017-12-26T03:03:39.204Z,946.22
2017-12-26T03:04:39.176Z,946.17
2017-12-26T03:05:39.173Z,946.17
2017-12-26T03:06:39.145Z,946.17
2017-12-26T03:07:39.128Z,946.12
2017-12-26T03:08:39.114Z,946.12
2017-12-26T03:09:39.097Z,946.12
2017-12-26T03:10:39.082Z,946.12
2017-12-26T03:11:39.065Z,946.17
2017-12-26T03:12:39.050Z,946.09
2017-12-26T03:13:39.033Z,946.15
2017-12-26T03:14:39.032Z,946.11
2017-12-26T03:15:39.001Z,946.09
2017-12-26T03:16:38.988Z,946.03
2017-12-26T03:17:38.982Z,946.08
2017-12-26T03:18:38.954Z,946.09
2017-12-26T03:19:38.950Z,946.01
2017-12-26T03:20:38.924Z,946.02
2017-12-26T03:21:38.908Z,946.02
2017-12-26T03:22:38.892Z,945.99
2017-12-26T03:23:38.877Z,946.03
2017-12-26T03:24:38.861Z,946.03
2017-12-26T03:25:38.845Z,946.01
2017-12-26T03:26:38.828Z,945.95
2017-12-26T03:27:38.814Z,945.97
2017-12-26T03:28:38.797Z,946.02
2017-12-26T03:29:38.783Z,946
2017-12-26T03:30:38.770Z,945.9
2017-12-26T03:31:38.751Z,945.98
2017-12-26T03:32:38.736Z,945.9
2017-12-26T03:33:38.719Z,945.92
2017-12-26T03:34:38.721Z,945.99
2017-12-26T03:35:38.689Z,945.94
2017-12-26T03:36:38.671Z,945.92
2017-12-26T03:37:38.655Z,945.95
2017-12-26T03:38:38.640Z,945.92
2017-12-26T03:39:38.624Z,945.94
2017-12-26T03:40:38.609Z,945.97
2017-12-26T03:41:38.593Z,945.88
2017-12-26T03:42:38.577Z,946
2017-12-26T03:43:38.563Z,945.92
2017-12-26T03:44:38.546Z,945.91
2017-12-26T03:45:38.529Z,945.9
2017-12-26T03:46:38.514Z,945.98
2017-12-26T03:47:38.549Z,945.9
2017-12-26T03:48:38.482Z,945.91
2017-12-26T03:49:38.467Z,945.87
2017-12-26T03:50:38.451Z,945.87
2017-12-26T03:51:38.436Z,945.92
2017-12-26T03:52:38.418Z,945.86
2017-12-26T03:53:38.404Z,945.85
2017-12-26T03:54:38.388Z,945.95
2017-12-26T03:55:38.372Z,945.86
2017-12-26T03:56:38.355Z,945.87
2017-12-26T03:57:38.339Z,945.9
2017-12-26T03:58:38.375Z,945.84
2017-12-26T03:59:38.309Z,945.89
2017-12-26T04:00:38.294Z,945.92
2017-12-26T04:01:38.293Z,945.82
2017-12-26T04:02:38.261Z,945.88
2017-12-26T04:03:38.245Z,945.83
2017-12-26T04:04:38.229Z,945.78
2017-12-26T04:05:38.235Z,945.82
2017-12-26T04:06:38.199Z,945.74
2017-12-26T04:07:38.184Z,945.75
2017-12-26T04:08:38.166Z,945.73
2017-12-26T04:09:38.150Z,945.7
2017-12-26T04:10:38.133Z,945.7
2017-12-26T04:11:38.120Z,945.7
2017-12-26T04:12:38.102Z,945.7
2017-12-26T04:13:38.088Z,945.64
2017-12-26T04:14:38.070Z,945.63
2017-12-26T04:15:38.072Z,945.64
2017-12-26T04:16:38.039Z,945.57
2017-12-26T04:17:38.023Z,945.57
2017-12-26T04:18:38.009Z,945.53
2017-12-26T04:19:37.992Z,945.57
2017-12-26T04:20:37.995Z,945.5
2017-12-26T04:21:37.962Z,945.52
2017-12-26T04:22:37.944Z,945.51
2017-12-26T04:23:37.929Z,945.47
2017-12-26T04:24:37.912Z,945.54
2017-12-26T04:25:37.897Z,945.42
2017-12-26T04:26:37.881Z,945.41
2017-12-26T04:27:37.865Z,945.39
2017-12-26T04:28:37.847Z,945.41
2017-12-26T04:29:37.833Z,945.5
2017-12-26T04:30:37.816Z,945.47
2017-12-26T04:31:37.801Z,945.37
2017-12-26T04:32:37.786Z,945.4
2017-12-26T04:33:37.775Z,945.47
2017-12-26T04:34:37.776Z,945.42
2017-12-26T04:35:37.736Z,945.38
2017-12-26T04:36:37.722Z,945.41
2017-12-26T04:37:37.706Z,945.33
2017-12-26T04:38:37.698Z,945.32
2017-12-26T04:39:37.692Z,945.31
2017-12-26T04:40:37.658Z,945.33
2017-12-26T04:41:37.642Z,945.33
2017-12-26T04:42:37.626Z,945.37
2017-12-26T04:43:37.616Z,945.34
2017-12-26T04:44:37.599Z,945.24
2017-12-26T04:45:37.578Z,945.33
2017-12-26T04:46:37.562Z,945.28
2017-12-26T04:47:37.548Z,945.28
2017-12-26T04:48:37.532Z,945.32
2017-12-26T04:49:37.516Z,945.25
2017-12-26T04:50:37.499Z,945.24
2017-12-26T04:51:37.483Z,945.2
2017-12-26T04:52:37.474Z,945.24
2017-12-26T04:53:37.450Z,945.16
2017-12-26T04:54:37.436Z,945.21
2017-12-26T04:55:37.431Z,945.26
2017-12-26T04:56:37.404Z,945.09
2017-12-26T04:57:37.387Z,945.13
2017-12-26T04:58:37.373Z,945.17
2017-12-26T04:59:37.356Z,945.13
2017-12-26T05:00:37.341Z,945.12
2017-12-26T05:01:37.325Z,945.1
2017-12-26T05:02:37.311Z,945.07
2017-12-26T05:03:37.293Z,945.05
2017-12-26T05:04:37.279Z,945.1
2017-12-26T05:05:37.263Z,945.02
2017-12-26T05:06:37.252Z,945.02
2017-12-26T05:07:37.231Z,945.03
2017-12-26T05:08:37.213Z,944.92
2017-12-26T05:09:37.199Z,944.94
2017-12-26T05:10:37.183Z,944.86
2017-12-26T05:11:37.165Z,944.98
2017-12-26T05:12:37.156Z,944.95
2017-12-26T05:13:37.138Z,944.91
2017-12-26T05:14:37.120Z,944.89
2017-12-26T05:15:37.105Z,944.89
2017-12-26T05:16:37.089Z,944.86
2017-12-26T05:17:37.074Z,944.91
2017-12-26T05:18:37.058Z,944.82
2017-12-26T05:19:37.040Z,944.86
2017-12-26T05:20:37.036Z,944.9
2017-12-26T05:21:37.009Z,944.79
2017-12-26T05:22:36.994Z,944.87
2017-12-26T05:23:36.979Z,944.81
2017-12-26T05:24:36.964Z,944.7
2017-12-26T05:25:36.947Z,944.84
2017-12-26T05:26:36.979Z,944.76
2017-12-26T05:27:36.920Z,944.72
2017-12-26T05:28:36.901Z,944.78
2017-12-26T05:29:36.884Z,944.73
2017-12-26T05:30:36.868Z,944.72
2017-12-26T05:31:36.853Z,944.68
2017-12-26T05:32:36.841Z,944.66
2017-12-26T05:33:36.822Z,944.58
2017-12-26T05:34:36.808Z,944.52
2017-12-26T05:35:36.792Z,944.48
2017-12-26T05:36:36.776Z,944.55
2017-12-26T05:37:36.810Z,944.54
2017-12-26T05:38:36.745Z,944.56
2017-12-26T05:39:36.736Z,944.51
2017-12-26T05:40:36.718Z,944.66
2017-12-26T05:41:36.698Z,944.53
2017-12-26T05:42:36.684Z,944.6
2017-12-26T05:43:36.668Z,944.48
2017-12-26T05:44:36.652Z,944.56
2017-12-26T05:45:36.643Z,944.47
2017-12-26T05:46:36.621Z,944.51
2017-12-26T05:47:36.606Z,944.48
2017-12-26T05:48:36.639Z,944.49
2017-12-26T05:49:36.576Z,944.44
2017-12-26T05:50:36.559Z,944.5
2017-12-26T05:51:36.546Z,944.47
2017-12-26T05:52:36.529Z,944.37
2017-12-26T05:53:36.513Z,944.44
2017-12-26T05:54:36.519Z,944.44
2017-12-26T05:55:36.482Z,944.38
2017-12-26T05:56:36.467Z,944.5
2017-12-26T05:57:36.451Z,944.49
2017-12-26T05:58:36.437Z,944.47
2017-12-26T05:59:36.422Z,944.43
2017-12-26T06:00:36.407Z,944.61
2017-12-26T06:01:36.391Z,944.46
2017-12-26T06:02:36.377Z,944.51
2017-12-26T06:03:36.367Z,944.53
2017-12-26T06:04:36.345Z,944.47
2017-12-26T06:05:36.330Z,944.39
2017-12-26T06:06:36.315Z,944.45
2017-12-26T06:07:36.300Z,944.4
2017-12-26T06:08:36.290Z,944.46
2017-12-26T06:09:36.272Z,944.41
2017-12-26T06:10:36.258Z,944.4
2017-12-26T06:11:36.240Z,944.37
2017-12-26T06:12:36.227Z,944.3
2017-12-26T06:13:36.213Z,944.28
2017-12-26T06:14:36.192Z,944.39
2017-12-26T06:15:36.179Z,944.33
2017-12-26T06:16:36.165Z,944.29
2017-12-26T06:17:36.149Z,944.39
2017-12-26T06:18:36.142Z,944.26
2017-12-26T06:19:36.118Z,944.25
2017-12-26T06:20:36.103Z,944.26
2017-12-26T06:21:36.102Z,944.25
2017-12-26T06:22:36.071Z,944.19
2017-12-26T06:23:36.058Z,944.2
2017-12-26T06:24:36.043Z,944.23
2017-12-26T06:25:36.028Z,944.22
2017-12-26T06:26:36.013Z,944.19
2017-12-26T06:27:35.997Z,944.19
2017-12-26T06:28:35.980Z,944.15
2017-12-26T06:29:35.966Z,944.23
2017-12-26T06:30:35.951Z,944.26
2017-12-26T06:31:35.958Z,944.18
2017-12-26T06:32:35.923Z,944.2
2017-12-26T06:33:35.907Z,944.19
2017-12-26T06:34:35.890Z,944.18
2017-12-26T06:35:35.881Z,944.15
2017-12-26T06:36:35.860Z,944.16
2017-12-26T06:37:35.847Z,944.16
2017-12-26T06:38:35.833Z,944.11
2017-12-26T06:39:35.820Z,944.1
2017-12-26T06:40:35.801Z,944.09
2017-12-26T06:41:35.807Z,944.1
2017-12-26T06:42:35.771Z,944.13
2017-12-26T06:43:35.758Z,944.01
2017-12-26T06:44:35.741Z,944.08
2017-12-26T06:45:35.727Z,944.01
2017-12-26T06:46:35.709Z,944.02
2017-12-26T06:47:35.696Z,944.02
2017-12-26T06:48:35.691Z,944.05
2017-12-26T06:49:35.666Z,944.01
2017-12-26T06:50:35.662Z,944.02
2017-12-26T06:51:35.635Z,944.1
2017-12-26T06:52:35.641Z,944.11
2017-12-26T06:53:35.607Z,944.12
2017-12-26T06:54:35.589Z,944.16
2017-12-26T06:55:35.576Z,944.18
2017-12-26T06:56:35.560Z,944.19
2017-12-26T06:57:35.544Z,944.15
2017-12-26T06:58:35.531Z,944.15
2017-12-26T06:59:35.513Z,944.14
2017-12-26T07:00:35.499Z,944.11
2017-12-26T07:01:35.483Z,944.11
2017-12-26T07:02:35.467Z,944.1
2017-12-26T07:03:35.453Z,944.09
2017-12-26T07:04:35.440Z,944.09
2017-12-26T07:05:35.422Z,944.05
2017-12-26T07:06:35.408Z,944.1
2017-12-26T07:07:35.397Z,944.08
2017-12-26T07:08:35.378Z,944.05
2017-12-26T07:09:35.361Z,944.09
2017-12-26T07:10:35.346Z,944.09
2017-12-26T07:11:35.331Z,944
2017-12-26T07:12:35.315Z,943.94
2017-12-26T07:13:35.299Z,944
2017-12-26T07:14:35.284Z,943.91
2017-12-26T07:15:35.269Z,943.88
2017-12-26T07:16:35.254Z,943.91
2017-12-26T07:17:35.241Z,943.9
2017-12-26T07:18:35.223Z,943.88
2017-12-26T07:19:35.224Z,943.97
2017-12-26T07:20:35.190Z,943.97
2017-12-26T07:21:35.176Z,943.92
2017-12-26T07:22:35.172Z,943.84
2017-12-26T07:23:35.145Z,943.87
2017-12-26T07:24:35.142Z,943.9
2017-12-26T07:25:35.114Z,943.87
2017-12-26T07:26:35.100Z,943.82
2017-12-26T07:27:35.133Z,943.87
2017-12-26T07:28:35.067Z,943.71
2017-12-26T07:29:35.054Z,943.76
2017-12-26T07:30:35.044Z,943.77
2017-12-26T07:31:35.020Z,943.75
2017-12-26T07:32:35.005Z,943.76
2017-12-26T07:33:35.002Z,943.75
2017-12-26T07:34:34.975Z,943.74
2017-12-26T07:35:34.959Z,943.77
2017-12-26T07:36:34.947Z,943.75
2017-12-26T07:37:34.928Z,943.63
2017-12-26T07:38:34.913Z,943.68
2017-12-26T07:39:34.896Z,943.67
2017-12-26T07:40:34.883Z,943.71
2017-12-26T07:41:34.866Z,943.7
2017-12-26T07:42:34.851Z,943.63
2017-12-26T07:43:34.843Z,943.6
2017-12-26T07:44:34.822Z,943.58
2017-12-26T07:45:34.806Z,943.59
2017-12-26T07:46:34.790Z,943.6
2017-12-26T07:47:34.774Z,943.61
2017-12-26T07:48:34.759Z,943.59
2017-12-26T07:49:34.743Z,943.48
2017-12-26T07:50:34.728Z,943.58
2017-12-26T07:51:34.712Z,943.47
2017-12-26T07:52:34.695Z,943.43
2017-12-26T07:53:34.682Z,943.43
2017-12-26T07:54:34.667Z,943.46
2017-12-26T07:55:34.689Z,943.4
2017-12-26T07:56:34.635Z,943.48
2017-12-26T07:57:34.620Z,943.41
2017-12-26T07:58:34.605Z,943.39
2017-12-26T07:59:34.590Z,943.39
2017-12-26T08:00:34.573Z,943.39
2017-12-26T08:01:34.558Z,943.36
2017-12-26T08:02:34.562Z,943.37
2017-12-26T08:03:34.527Z,943.36
2017-12-26T08:04:34.558Z,943.26
2017-12-26T08:05:34.498Z,943.31
2017-12-26T08:06:34.481Z,943.34
2017-12-26T08:07:34.470Z,943.34
2017-12-26T08:08:34.450Z,943.38
2017-12-26T08:09:34.437Z,943.29
2017-12-26T08:10:34.422Z,943.28
2017-12-26T08:11:34.408Z,943.23
2017-12-26T08:12:34.394Z,943.24
2017-12-26T08:13:34.381Z,943.33
2017-12-26T08:14:34.361Z,943.26
2017-12-26T08:15:34.347Z,943.22
2017-12-26T08:16:34.332Z,943.22
2017-12-26T08:17:34.317Z,943.14
2017-12-26T08:18:34.301Z,943.24
2017-12-26T08:19:34.286Z,943.22
2017-12-26T08:20:34.272Z,943.23
2017-12-26T08:21:34.266Z,943.16
2017-12-26T08:22:34.243Z,943.17
2017-12-26T08:23:34.226Z,943.28
2017-12-26T08:24:34.211Z,943.2
2017-12-26T08:25:34.196Z,943.25
2017-12-26T08:26:34.180Z,943.22
2017-12-26T08:27:34.168Z,943.14
2017-12-26T08:28:34.164Z,943.19
2017-12-26T08:29:34.136Z,943.14
2017-12-26T08:30:34.121Z,943.11
2017-12-26T08:31:34.109Z,943.21
2017-12-26T08:32:34.092Z,943.16
2017-12-26T08:33:34.077Z,943.08
2017-12-26T08:34:34.065Z,943.03
2017-12-26T08:35:34.048Z,942.96
2017-12-26T08:36:34.032Z,943.01
2017-12-26T08:37:34.020Z,943.05
2017-12-26T08:38:34.004Z,943.19
2017-12-26T08:39:33.989Z,942.9
2017-12-26T08:40:34.177Z,942.96
2017-12-26T08:41:33.958Z,943.04
2017-12-26T08:42:33.945Z,943.06
2017-12-26T08:43:33.931Z,943.12
2017-12-26T08:44:33.915Z,942.98
2017-12-26T08:45:33.901Z,943.1
2017-12-26T08:46:33.887Z,943
2017-12-26T08:47:33.872Z,943.02
2017-12-26T08:48:33.860Z,942.96
2017-12-26T08:49:33.843Z,942.94
2017-12-26T08:50:33.828Z,943.05
2017-12-26T08:51:33.835Z,943.06
2017-12-26T08:52:33.800Z,942.9
2017-12-26T08:53:33.785Z,943.02
2017-12-26T08:54:33.769Z,942.98
2017-12-26T08:55:33.754Z,942.93
2017-12-26T08:56:33.742Z,942.99
2017-12-26T08:57:33.734Z,943.01
2017-12-26T08:58:33.716Z,943.08
2017-12-26T08:59:33.698Z,942.98
2017-12-26T09:00:33.682Z,943.02
2017-12-26T09:01:33.669Z,942.98
2017-12-26T09:02:33.654Z,943.01
2017-12-26T09:03:33.641Z,942.89
2017-12-26T09:04:33.636Z,943.04
2017-12-26T09:05:33.611Z,943.01
2017-12-26T09:06:33.610Z,943.02
2017-12-26T09:07:33.583Z,942.93
2017-12-26T09:08:33.569Z,942.98
2017-12-26T09:09:33.554Z,942.95
2017-12-26T09:10:33.539Z,942.95
2017-12-26T09:11:33.526Z,942.91
2017-12-26T09:12:33.513Z,942.96
2017-12-26T09:13:33.497Z,942.99
2017-12-26T09:14:33.482Z,943.04
2017-12-26T09:15:33.469Z,943
2017-12-26T09:16:33.453Z,942.95
2017-12-26T09:17:33.439Z,943.01
2017-12-26T09:18:33.425Z,943.04
2017-12-26T09:19:33.411Z,943.05
2017-12-26T09:20:33.397Z,943.04
2017-12-26T09:21:33.381Z,943.03
2017-12-26T09:22:33.368Z,943.04
2017-12-26T09:23:33.355Z,943
2017-12-26T09:24:33.340Z,943.01
2017-12-26T09:25:33.326Z,943
2017-12-26T09:26:33.311Z,943.03
2017-12-26T09:27:33.300Z,943.01
2017-12-26T09:28:33.298Z,943.01
2017-12-26T09:29:33.270Z,943.04
2017-12-26T09:30:33.257Z,942.95
2017-12-26T09:31:33.243Z,942.92
2017-12-26T09:32:33.230Z,942.95
2017-12-26T09:33:33.227Z,942.95
2017-12-26T09:34:33.201Z,942.92
2017-12-26T09:35:33.183Z,942.92
2017-12-26T09:36:33.170Z,942.96
2017-12-26T09:37:33.157Z,942.92
2017-12-26T09:38:33.161Z,942.87
2017-12-26T09:39:33.127Z,942.82
2017-12-26T09:40:33.117Z,942.87
2017-12-26T09:41:33.100Z,942.82
2017-12-26T09:42:33.084Z,942.74
2017-12-26T09:43:33.070Z,942.68
2017-12-26T09:44:33.056Z,942.68
2017-12-26T09:45:33.042Z,942.79
2017-12-26T09:46:33.029Z,942.62
2017-12-26T09:47:33.015Z,942.66
2017-12-26T09:48:33.000Z,942.64
2017-12-26T09:49:33.029Z,942.66
2017-12-26T09:50:32.980Z,942.54
2017-12-26T09:51:33.003Z,942.58
2017-12-26T09:52:33.002Z,942.58
2017-12-26T09:53:32.930Z,942.58
2017-12-26T09:54:32.937Z,942.54
2017-12-26T09:55:32.951Z,942.63
2017-12-26T09:56:32.968Z,942.68
2017-12-26T09:57:32.889Z,942.59
2017-12-26T09:58:32.936Z,942.49
2017-12-26T09:59:32.887Z,942.53
2017-12-26T10:00:32.832Z,942.56
2017-12-26T10:01:32.856Z,942.49
2017-12-26T10:02:32.814Z,942.41
2017-12-26T10:03:32.810Z,942.42
2017-12-26T10:04:32.817Z,942.51
2017-12-26T10:05:32.780Z,942.56
2017-12-26T10:06:32.810Z,942.35
2017-12-26T10:07:32.785Z,942.28
2017-12-26T10:08:32.721Z,942.36
2017-12-26T10:09:32.751Z,942.41
2017-12-26T10:10:32.752Z,942.51
2017-12-26T10:11:32.674Z,942.56
2017-12-26T10:12:32.799Z,942.4
2017-12-26T10:13:32.691Z,942.28
2017-12-26T10:14:32.654Z,942.33
2017-12-26T10:15:32.669Z,942.36
2017-12-26T10:16:32.664Z,942.42
2017-12-26T10:17:32.654Z,942.29
2017-12-26T10:18:32.637Z,942.29
2017-12-26T10:19:32.580Z,942.43
2017-12-26T10:20:32.611Z,942.46
2017-12-26T10:21:32.576Z,942.25
2017-12-26T10:22:32.579Z,942.33
2017-12-26T10:23:32.618Z,942.33
2017-12-26T10:24:32.767Z,942.24
2017-12-26T10:25:32.524Z,942.17
2017-12-26T10:26:33.693Z,942.14
2017-12-26T10:27:32.512Z,942.02
2017-12-26T10:28:32.462Z,942.05
2017-12-26T10:29:32.471Z,941.96
2017-12-26T10:30:32.468Z,941.98
2017-12-26T10:31:32.442Z,941.94
2017-12-26T10:32:32.634Z,941.97
2017-12-26T10:33:32.425Z,941.9
2017-12-26T10:34:32.452Z,942.02
2017-12-26T10:35:32.395Z,942
2017-12-26T10:36:32.366Z,941.94
2017-12-26T10:37:32.306Z,941.97
2017-12-26T10:38:32.336Z,941.91
2017-12-26T10:39:32.277Z,941.87
2017-12-26T10:40:32.323Z,941.86
2017-12-26T10:41:32.250Z,941.86
2017-12-26T10:42:32.235Z,941.81
2017-12-26T10:43:32.221Z,941.85
2017-12-26T10:44:32.206Z,941.88
2017-12-26T10:45:32.192Z,941.95
2017-12-26T10:46:32.255Z,941.8
2017-12-26T10:47:32.225Z,941.8
2017-12-26T10:48:32.166Z,941.69
2017-12-26T10:49:32.198Z,941.76
2017-12-26T10:50:32.338Z,941.69
2017-12-26T10:51:32.183Z,941.72
2017-12-26T10:52:32.156Z,941.68
2017-12-26T10:53:32.115Z,941.66
2017-12-26T10:54:32.132Z,941.61
2017-12-26T10:55:32.107Z,941.59
2017-12-26T10:56:32.051Z,941.56
2017-12-26T10:57:32.029Z,941.56
2017-12-26T10:58:32.073Z,941.58
2017-12-26T10:59:32.043Z,941.63
2017-12-26T11:00:32.000Z,941.55
2017-12-26T11:01:31.965Z,941.45
2017-12-26T11:02:31.998Z,941.46
2017-12-26T11:03:32.000Z,941.44
2017-12-26T11:04:31.976Z,941.39
2017-12-26T11:05:31.909Z,941.44
2017-12-26T11:06:31.960Z,941.52
2017-12-26T11:07:31.907Z,941.44
2017-12-26T11:08:31.931Z,941.29
2017-12-26T11:09:31.930Z,941.34
2017-12-26T11:10:31.887Z,941.36
2017-12-26T11:11:31.827Z,941.22
2017-12-26T11:12:31.811Z,941.2
2017-12-26T11:13:31.819Z,941.2
2017-12-26T11:14:31.787Z,941.15
2017-12-26T11:15:31.839Z,941.15
2017-12-26T11:16:31.755Z,941.04
2017-12-26T11:17:31.774Z,940.94
2017-12-26T11:18:31.790Z,940.95
2017-12-26T11:19:31.714Z,940.88
2017-12-26T11:20:31.700Z,940.93
2017-12-26T11:21:31.685Z,940.87
2017-12-26T11:22:31.717Z,940.76
2017-12-26T11:23:31.660Z,940.66
2017-12-26T11:24:31.644Z,940.67
2017-12-26T11:25:31.630Z,940.7
2017-12-26T11:26:31.618Z,940.62
2017-12-26T11:27:31.605Z,940.73
2017-12-26T11:28:31.589Z,940.93
2017-12-26T11:29:31.576Z,940.67
2017-12-26T11:30:31.563Z,940.71
2017-12-26T11:31:31.548Z,940.72
2017-12-26T11:32:31.535Z,940.66
2017-12-26T11:33:31.521Z,940.63
2017-12-26T11:34:31.507Z,940.62
2017-12-26T11:35:31.493Z,940.64
2017-12-26T11:36:31.481Z,940.6
2017-12-26T11:37:31.465Z,940.71
2017-12-26T11:38:31.453Z,940.72
2017-12-26T11:39:31.435Z,940.67
2017-12-26T11:40:31.448Z,940.61
2017-12-26T11:41:31.410Z,940.63
2017-12-26T11:42:31.395Z,940.73
2017-12-26T11:43:31.382Z,940.89
2017-12-26T11:44:31.368Z,940.74
2017-12-26T11:45:31.355Z,940.86
2017-12-26T11:46:31.340Z,940.97
2017-12-26T11:47:31.326Z,940.72
2017-12-26T11:48:31.313Z,940.84
2017-12-26T11:49:31.299Z,940.92
2017-12-26T11:50:31.284Z,940.71
2017-12-26T11:51:31.274Z,940.88
2017-12-26T11:52:31.258Z,940.89
2017-12-26T11:53:31.243Z,941.06
2017-12-26T11:54:31.230Z,941.05
2017-12-26T11:55:31.215Z,940.96
2017-12-26T11:56:31.202Z,940.9
2017-12-26T11:57:31.187Z,940.89
2017-12-26T11:58:31.182Z,940.98
2017-12-26T11:59:31.161Z,940.91
2017-12-26T12:00:31.145Z,940.87
2017-12-26T12:01:31.131Z,940.85
2017-12-26T12:02:31.117Z,940.79
2017-12-26T12:03:31.110Z,940.92
2017-12-26T12:04:31.088Z,940.85
2017-12-26T12:05:31.088Z,940.68
2017-12-26T12:06:31.061Z,940.71
2017-12-26T12:07:31.048Z,940.71
2017-12-26T12:08:31.033Z,940.66
2017-12-26T12:09:31.020Z,940.59
2017-12-26T12:10:31.016Z,940.59
2017-12-26T12:11:30.993Z,940.58
2017-12-26T12:12:30.978Z,940.56
2017-12-26T12:13:30.966Z,940.57
2017-12-26T12:14:30.951Z,940.55
2017-12-26T12:15:30.937Z,940.46
2017-12-26T12:16:30.924Z,940.5
2017-12-26T12:17:30.911Z,940.66
2017-12-26T12:18:30.896Z,940.6
2017-12-26T12:19:30.884Z,940.49
2017-12-26T12:20:30.870Z,940.57
2017-12-26T12:21:30.870Z,940.6
2017-12-26T12:22:30.849Z,940.49
2017-12-26T12:23:30.828Z,940.55
2017-12-26T12:24:30.815Z,940.48
2017-12-26T12:25:30.803Z,940.32
2017-12-26T12:26:30.787Z,940.39
2017-12-26T12:27:30.777Z,940.4
2017-12-26T12:28:30.760Z,940.38
2017-12-26T12:29:30.750Z,940.34
2017-12-26T12:30:30.736Z,940.36
2017-12-26T12:31:30.724Z,940.32